Time;durP1;ratioP1;P1;durP2;ratioP2;P2;SDS_P1;SDS_P2;PMS_P1;PMS_P2;Temp;Humidity;BMP_temperature;BMP_pressure;BME280_temperature;BME280_humidity;BME280_pressure;Samples;Min_cycle;Max_cycle;Signal;HPM_P1;HPM_P2
2021/04/30 00:02:14;;;;;;;23.20;12.32;;;;;;;6.93;53.67;100896.75;4997712;28;20045;-69
2021/04/30 00:04:39;;;;;;;24.80;12.88;;;;;;;6.98;53.42;100900.13;5004166;28;20088;-69
2021/04/30 00:07:05;;;;;;;28.17;15.30;;;;;;;6.96;53.69;100907.09;5012624;28;20112;-69
2021/04/30 00:09:32;;;;;;;22.35;13.00;;;;;;;6.89;53.80;100896.84;5014781;28;20129;-70
2021/04/30 00:11:57;;;;;;;29.48;13.20;;;;;;;7.05;53.34;100906.88;5011843;28;20033;-69
2021/04/30 00:14:23;;;;;;;27.63;13.43;;;;;;;7.00;53.30;100909.56;5012692;28;20041;-70
2021/04/30 00:16:51;;;;;;;26.38;13.45;;;;;;;7.01;53.32;100900.03;4996770;28;20380;-69
2021/04/30 00:19:18;;;;;;;23.95;12.73;;;;;;;7.04;53.33;100899.94;5002980;28;21057;-69
2021/04/30 00:21:43;;;;;;;20.08;12.50;;;;;;;6.93;53.32;100905.41;5014017;28;20022;-71
2021/04/30 00:24:10;;;;;;;21.90;12.07;;;;;;;6.99;53.18;100907.00;5012300;28;20084;-71
2021/04/30 00:26:35;;;;;;;26.60;12.52;;;;;;;7.02;53.16;100914.72;4995793;28;20087;-69
2021/04/30 00:29:01;;;;;;;23.58;11.70;;;;;;;7.12;52.99;100911.00;5011951;28;20148;-69
2021/04/30 00:31:27;;;;;;;19.67;11.43;;;;;;;7.08;53.12;100917.19;5013175;28;20026;-69
2021/04/30 00:33:52;;;;;;;19.73;10.45;;;;;;;7.07;53.31;100918.94;5012004;28;20022;-69
2021/04/30 00:36:18;;;;;;;19.75;10.32;;;;;;;6.83;53.59;100914.31;5013341;28;20033;-69
2021/04/30 00:38:44;;;;;;;15.30;9.45;;;;;;;6.98;53.24;100910.50;5012592;28;20044;-70
2021/04/30 00:41:09;;;;;;;24.02;9.52;;;;;;;6.88;53.43;100915.06;5001111;28;20036;-69
2021/04/30 00:43:35;;;;;;;17.40;10.02;;;;;;;6.96;53.18;100918.34;5012650;28;20416;-69
2021/04/30 00:46:00;;;;;;;13.63;9.15;;;;;;;7.00;52.86;100921.69;5020590;28;20742;-70
2021/04/30 00:48:26;;;;;;;18.58;10.57;;;;;;;6.99;52.88;100927.78;5018868;28;20120;-69
2021/04/30 00:50:52;;;;;;;16.80;10.63;;;;;;;6.97;52.88;100926.97;5012705;28;20026;-69
2021/04/30 00:53:19;;;;;;;18.80;9.73;;;;;;;6.90;53.12;100924.53;5014824;28;20033;-69
2021/04/30 00:55:44;;;;;;;18.63;10.20;;;;;;;6.97;53.18;100929.56;5002586;28;20022;-71
2021/04/30 00:58:10;;;;;;;20.73;12.00;;;;;;;6.91;53.38;100928.84;5014171;28;20066;-70
2021/04/30 01:00:36;;;;;;;24.17;11.82;;;;;;;6.87;53.47;100934.16;5002645;28;20559;-69
2021/04/30 01:03:06;;;;;;;17.75;11.85;;;;;;;6.78;53.41;100935.22;4997980;28;20285;-68
2021/04/30 01:05:31;;;;;;;28.92;11.88;;;;;;;6.91;53.38;100925.41;5013327;28;20038;-70
2021/04/30 01:07:57;;;;;;;26.88;12.25;;;;;;;6.90;53.21;100932.31;4997188;28;20034;-69
2021/04/30 01:10:23;;;;;;;26.38;12.63;;;;;;;6.93;53.21;100939.19;5013736;28;20076;-69
2021/04/30 01:12:48;;;;;;;23.25;13.35;;;;;;;6.89;53.53;100943.63;5013210;28;20041;-69
2021/04/30 01:15:16;;;;;;;23.98;13.00;;;;;;;6.84;53.69;100948.06;5010817;28;20529;-69
2021/04/30 01:17:42;;;;;;;26.55;13.90;;;;;;;6.76;53.88;100946.53;5014737;28;20029;-72
2021/04/30 01:20:09;;;;;;;25.05;13.13;;;;;;;6.90;53.44;100945.31;4995733;28;20041;-71
2021/04/30 01:22:35;;;;;;;25.65;14.23;;;;;;;6.94;53.09;100953.06;5011177;28;20112;-69
2021/04/30 01:25:03;;;;;;;28.58;14.57;;;;;;;7.00;53.12;100955.47;5001263;28;20033;-68
2021/04/30 01:27:29;;;;;;;22.13;12.07;;;;;;;6.98;53.33;100952.94;5009919;28;20076;-69
2021/04/30 01:29:55;;;;;;;25.27;13.68;;;;;;;6.99;53.28;100953.78;5008817;28;20470;-68
2021/04/30 01:32:20;;;;;;;27.02;12.52;;;;;;;7.00;53.12;100958.06;4996885;28;20029;-69
2021/04/30 01:34:46;;;;;;;26.48;14.88;;;;;;;7.01;53.06;100960.66;5012794;28;20128;-69
2021/04/30 01:37:12;;;;;;;27.63;12.45;;;;;;;7.03;52.76;100968.41;4981773;28;20292;-69
2021/04/30 01:39:37;;;;;;;24.40;12.65;;;;;;;7.05;52.99;100958.84;4991895;28;20235;-69
2021/04/30 01:42:05;;;;;;;25.20;12.68;;;;;;;7.00;52.94;100963.28;5003384;28;20045;-71
2021/04/30 01:44:30;;;;;;;23.02;12.88;;;;;;;7.01;53.03;100962.41;5022789;28;20040;-71
2021/04/30 01:46:58;;;;;;;21.27;10.70;;;;;;;7.07;52.87;100968.31;5005119;28;20018;-70
2021/04/30 01:49:25;;;;;;;27.50;13.10;;;;;;;7.06;52.95;100960.53;4982692;28;20053;-71
2021/04/30 01:51:50;;;;;;;23.08;12.18;;;;;;;7.02;53.07;100967.56;5010423;28;20032;-69
2021/04/30 01:54:15;;;;;;;23.58;13.27;;;;;;;7.04;52.85;100964.91;4996007;28;20041;-69
2021/04/30 01:56:41;;;;;;;19.77;10.98;;;;;;;6.95;53.06;100972.94;5010818;28;20037;-69
2021/04/30 01:59:06;;;;;;;18.55;12.00;;;;;;;7.04;52.93;100972.72;4997572;28;20045;-70
2021/04/30 02:01:32;;;;;;;25.35;11.68;;;;;;;7.01;52.77;100978.00;5013092;28;20037;-69
2021/04/30 02:03:59;;;;;;;24.10;10.50;;;;;;;7.00;52.75;100971.94;5012778;28;20165;-71
2021/04/30 02:06:24;;;;;;;19.98;11.68;;;;;;;6.99;52.88;100974.56;4997817;28;20037;-69
2021/04/30 02:08:50;;;;;;;20.23;12.82;;;;;;;6.98;52.70;100972.88;5010790;28;20100;-69
2021/04/30 02:11:16;;;;;;;23.35;11.93;;;;;;;6.96;52.72;100975.50;5012093;28;20038;-69
2021/04/30 02:13:42;;;;;;;19.95;11.18;;;;;;;6.87;52.85;100973.13;5012056;28;20080;-68
2021/04/30 02:16:08;;;;;;;22.90;12.45;;;;;;;6.87;53.21;100981.75;4983402;28;20447;-69
2021/04/30 02:18:33;;;;;;;20.00;11.30;;;;;;;6.87;53.06;100984.38;4978756;28;20026;-69
2021/04/30 02:20:58;;;;;;;22.40;12.07;;;;;;;6.82;53.00;100978.44;4996274;28;20037;-69
2021/04/30 02:23:24;;;;;;;23.05;10.85;;;;;;;6.94;52.60;100982.47;5015470;28;20095;-69
2021/04/30 02:25:49;;;;;;;24.48;12.15;;;;;;;6.91;52.78;100986.00;5000784;28;20036;-69
2021/04/30 02:28:15;;;;;;;18.77;10.57;;;;;;;6.85;52.83;100975.75;4998403;28;20052;-70
2021/04/30 02:30:41;;;;;;;24.65;10.75;;;;;;;6.78;52.91;100981.97;5014857;28;20128;-69
2021/04/30 02:33:08;;;;;;;20.52;10.43;;;;;;;6.68;53.25;100981.31;5001237;28;20041;-69
2021/04/30 02:35:39;;;;;;;21.95;10.82;;;;;;;6.69;53.25;100977.00;4996090;28;20029;-69
2021/04/30 02:38:07;;;;;;;23.10;11.82;;;;;;;6.64;52.99;100984.88;4998138;28;20033;-69
2021/04/30 02:40:34;;;;;;;21.15;11.07;;;;;;;6.62;53.46;100986.66;5016212;28;20033;-69
2021/04/30 02:43:06;;;;;;;24.05;11.25;;;;;;;6.60;53.42;100987.59;5023560;28;20034;-69
2021/04/30 02:45:32;;;;;;;19.25;10.50;;;;;;;6.60;53.48;100992.78;5004029;28;20046;-70
2021/04/30 02:47:59;;;;;;;22.02;11.02;;;;;;;6.57;53.66;100988.47;5012219;28;20983;-70
2021/04/30 02:50:27;;;;;;;19.50;10.70;;;;;;;6.58;53.42;100998.00;5014523;28;20034;-69
2021/04/30 02:52:53;;;;;;;19.92;11.20;;;;;;;6.59;53.66;100996.25;4998782;28;20038;-69
2021/04/30 02:55:22;;;;;;;20.55;10.43;;;;;;;6.57;53.46;100998.88;5004943;28;20108;-69
2021/04/30 02:57:55;;;;;;;22.63;10.75;;;;;;;6.53;53.77;100998.97;5013227;28;20021;-71
2021/04/30 03:00:22;;;;;;;21.10;10.20;;;;;;;6.56;53.76;101009.31;5011062;28;20065;-71
2021/04/30 03:02:48;;;;;;;21.52;10.80;;;;;;;6.50;53.57;101013.72;5015762;28;20302;-70
2021/04/30 03:05:14;;;;;;;24.35;11.85;;;;;;;6.49;53.68;101012.03;4997454;28;20777;-70
2021/04/30 03:07:40;;;;;;;19.98;10.90;;;;;;;6.50;53.73;101021.50;5000827;28;20036;-70
2021/04/30 03:10:06;;;;;;;14.23;9.80;;;;;;;6.53;53.84;101028.41;4983911;28;20037;-70
2021/04/30 03:12:32;;;;;;;17.77;9.93;;;;;;;6.52;53.72;101025.84;5015186;28;20043;-72
2021/04/30 03:14:57;;;;;;;18.02;10.25;;;;;;;6.55;53.77;101028.34;5005963;28;20034;-69
2021/04/30 03:17:22;;;;;;;24.02;10.25;;;;;;;6.57;53.82;101029.19;5012936;28;20033;-71
2021/04/30 03:19:48;;;;;;;18.05;10.48;;;;;;;6.59;53.93;101030.00;5013270;28;20030;-68
2021/04/30 03:22:13;;;;;;;19.60;9.60;;;;;;;6.58;53.80;101030.91;4979628;28;20543;-70
2021/04/30 03:24:39;;;;;;;12.82;7.43;;;;;;;6.70;53.63;101030.63;5013693;28;20037;-69
2021/04/30 03:27:05;;;;;;;23.02;10.93;;;;;;;6.70;53.28;101036.69;4998993;28;20128;-69
2021/04/30 03:29:31;;;;;;;17.17;9.52;;;;;;;6.83;53.16;101031.22;5004993;28;20069;-69
2021/04/30 03:31:56;;;;;;;20.50;9.15;;;;;;;6.87;53.21;101038.94;4995984;28;20099;-70
2021/04/30 03:34:22;;;;;;;15.25;9.18;;;;;;;7.02;52.79;101039.47;5014358;28;20061;-70
2021/04/30 03:36:47;;;;;;;20.63;8.63;;;;;;;6.81;52.93;101046.84;4999275;28;20164;-70
2021/04/30 03:39:13;;;;;;;18.02;9.73;;;;;;;6.76;53.11;101042.66;5012782;28;20059;-70
2021/04/30 03:41:38;;;;;;;14.63;9.48;;;;;;;6.74;53.22;101042.69;4998295;28;20025;-70
2021/04/30 03:44:04;;;;;;;15.93;8.25;;;;;;;6.77;53.50;101050.38;5014204;28;20580;-69
2021/04/30 03:46:30;;;;;;;14.23;7.82;;;;;;;6.82;53.10;101050.28;5013758;28;20109;-69
2021/04/30 03:48:55;;;;;;;15.43;7.53;;;;;;;6.82;53.28;101043.38;4997066;28;20942;-70
2021/04/30 03:51:21;;;;;;;15.52;7.25;;;;;;;6.85;52.93;101050.25;5012980;28;20029;-71
2021/04/30 03:53:46;;;;;;;17.02;7.68;;;;;;;6.82;53.14;101053.78;5014789;28;20498;-70
2021/04/30 03:56:12;;;;;;;20.40;8.88;;;;;;;6.75;53.37;101062.56;4998540;28;20072;-72
2021/04/30 03:58:37;;;;;;;20.67;9.07;;;;;;;6.68;53.13;101064.44;5011942;28;20628;-70
2021/04/30 04:01:03;;;;;;;14.73;9.30;;;;;;;6.62;53.37;101058.50;5000431;28;20033;-70
2021/04/30 04:03:28;;;;;;;24.05;10.80;;;;;;;6.57;53.75;101062.94;4981383;28;20501;-70
2021/04/30 04:05:54;;;;;;;18.67;9.15;;;;;;;6.55;53.84;101057.81;5004274;28;20080;-69
2021/04/30 04:08:20;;;;;;;20.10;10.77;;;;;;;6.57;53.96;101056.00;5012429;28;20709;-70
2021/04/30 04:10:45;;;;;;;21.20;10.55;;;;;;;6.63;53.56;101055.03;5013912;28;20594;-69
2021/04/30 04:13:19;;;;;;;19.48;11.45;;;;;;;6.61;53.84;101067.19;4994713;28;20654;-71
2021/04/30 04:15:45;;;;;;;13.68;8.73;;;;;;;6.76;53.68;101068.63;5001550;28;20093;-71
2021/04/30 04:18:11;;;;;;;14.10;7.75;;;;;;;6.85;53.65;101071.88;4992984;28;20041;-71
2021/04/30 04:20:36;;;;;;;17.20;9.35;;;;;;;6.90;53.24;101072.63;5011833;28;20025;-69
2021/04/30 04:23:02;;;;;;;19.63;9.07;;;;;;;6.90;53.35;101074.38;4999938;28;20369;-69
2021/04/30 04:25:28;;;;;;;17.70;9.82;;;;;;;6.84;53.47;101075.38;5008697;28;20122;-69
2021/04/30 04:27:53;;;;;;;16.15;8.48;;;;;;;6.83;53.40;101078.00;5013138;28;20065;-69
2021/04/30 04:30:19;;;;;;;16.10;8.95;;;;;;;6.89;53.72;101073.53;5001710;28;20087;-69
2021/04/30 04:32:45;;;;;;;18.73;9.32;;;;;;;7.09;53.05;101077.44;5010941;28;20699;-69
2021/04/30 04:35:11;;;;;;;14.27;8.45;;;;;;;7.10;53.08;101076.53;5012433;28;20725;-69
2021/04/30 04:37:36;;;;;;;18.08;9.23;;;;;;;7.06;52.99;101077.50;5005922;28;20033;-69
2021/04/30 04:40:03;;;;;;;16.92;9.55;;;;;;;7.08;53.26;101086.13;5019788;28;20581;-69
2021/04/30 04:42:29;;;;;;;12.98;9.43;;;;;;;7.10;53.25;101081.75;5012198;28;20030;-69
2021/04/30 04:44:54;;;;;;;19.65;9.73;;;;;;;7.09;52.94;101093.88;5011343;28;20515;-69
2021/04/30 04:47:20;;;;;;;14.88;8.50;;;;;;;7.08;53.22;101096.50;5013335;28;20048;-69
2021/04/30 04:49:45;;;;;;;20.60;9.13;;;;;;;7.21;52.91;101100.56;5003303;28;20042;-68
2021/04/30 04:52:12;;;;;;;17.50;9.55;;;;;;;7.16;52.84;101105.00;5010676;28;20091;-70
2021/04/30 04:54:37;;;;;;;15.45;9.88;;;;;;;7.18;52.87;101105.00;5010974;28;20034;-69
2021/04/30 04:57:03;;;;;;;15.80;8.20;;;;;;;7.26;53.03;101109.09;5012346;28;20506;-69
2021/04/30 04:59:28;;;;;;;14.50;7.55;;;;;;;7.35;53.04;101117.59;5013023;28;20033;-70
2021/04/30 05:01:54;;;;;;;21.58;8.27;;;;;;;7.41;52.84;101125.25;4995885;28;20116;-69
2021/04/30 05:04:20;;;;;;;13.10;9.00;;;;;;;7.39;52.73;101124.44;5013327;28;20050;-69
2021/04/30 05:06:46;;;;;;;15.75;8.00;;;;;;;7.35;52.04;101130.59;5011237;28;20034;-69
2021/04/30 05:09:12;;;;;;;14.45;7.63;;;;;;;7.27;52.74;101128.19;5000050;28;20052;-70
2021/04/30 05:11:37;;;;;;;15.60;9.40;;;;;;;7.33;53.17;101135.81;5011803;28;20492;-70
2021/04/30 05:14:03;;;;;;;17.60;8.32;;;;;;;7.43;51.97;101136.47;5011344;28;20111;-70
2021/04/30 05:16:29;;;;;;;17.48;8.75;;;;;;;7.32;52.63;101139.31;5000487;28;20037;-68
2021/04/30 05:18:55;;;;;;;16.20;8.05;;;;;;;7.40;52.48;101141.72;4996220;28;20125;-70
2021/04/30 05:21:21;;;;;;;18.15;8.80;;;;;;;7.32;52.18;101140.16;4992996;28;20034;-69
2021/04/30 05:23:47;;;;;;;13.25;7.38;;;;;;;7.33;52.68;101141.91;4998324;28;20544;-71
2021/04/30 05:26:12;;;;;;;17.95;8.00;;;;;;;7.36;52.44;101147.91;5000264;28;20133;-71
2021/04/30 05:28:38;;;;;;;19.40;8.27;;;;;;;7.43;52.74;101139.94;5010603;28;20030;-69
2021/04/30 05:31:04;;;;;;;14.15;8.60;;;;;;;7.51;52.58;101134.53;5013059;28;20529;-69
2021/04/30 05:33:30;;;;;;;13.55;8.18;;;;;;;7.61;52.38;101146.50;5013282;28;20596;-68
2021/04/30 05:35:55;;;;;;;12.73;8.38;;;;;;;7.69;52.01;101143.69;4998355;28;20049;-71
2021/04/30 05:38:22;;;;;;;20.98;9.82;;;;;;;7.74;52.09;101150.53;5001246;28;20498;-71
2021/04/30 05:40:47;;;;;;;18.88;8.65;;;;;;;7.83;52.19;101146.00;4980464;28;20025;-71
2021/04/30 05:43:13;;;;;;;17.52;8.52;;;;;;;7.82;52.02;101141.66;4997612;28;20052;-70
2021/04/30 05:45:44;;;;;;;17.38;8.57;;;;;;;7.86;52.10;101151.97;4995711;28;20080;-69
2021/04/30 05:48:10;;;;;;;27.13;10.65;;;;;;;8.05;52.10;101151.53;4986357;28;20033;-71
2021/04/30 05:50:36;;;;;;;21.98;8.13;;;;;;;8.19;51.87;101143.38;4997066;28;20439;-70
2021/04/30 05:53:01;;;;;;;12.95;8.00;;;;;;;8.30;51.24;101150.00;4998277;28;20231;-68
2021/04/30 05:55:27;;;;;;;18.15;8.30;;;;;;;8.36;51.27;101159.41;4997916;28;20128;-71
2021/04/30 05:57:53;;;;;;;15.23;8.50;;;;;;;8.49;51.08;101152.97;5011561;28;20030;-69
2021/04/30 06:00:19;;;;;;;19.20;8.57;;;;;;;8.61;50.83;101157.00;5013543;28;20499;-71
2021/04/30 06:02:44;;;;;;;14.68;8.98;;;;;;;8.74;50.32;101154.97;5011678;28;20041;-69
2021/04/30 06:05:11;;;;;;;15.90;7.53;;;;;;;8.90;49.64;101152.78;4996051;28;20037;-71
2021/04/30 06:07:36;;;;;;;16.83;7.45;;;;;;;9.05;49.49;101156.66;5012744;28;20470;-69
2021/04/30 06:10:04;;;;;;;14.95;8.88;;;;;;;9.34;49.40;101155.81;5014110;28;20043;-69
2021/04/30 06:12:30;;;;;;;14.32;8.00;;;;;;;9.59;47.87;101148.94;5010557;28;20045;-70
2021/04/30 06:14:55;;;;;;;16.92;8.70;;;;;;;9.76;48.20;101147.53;4998887;28;20510;-70
2021/04/30 06:17:21;;;;;;;19.13;8.13;;;;;;;9.72;46.56;101153.75;4997754;28;20065;-70
2021/04/30 06:19:49;;;;;;;14.90;7.25;;;;;;;9.92;47.17;101160.97;4995589;28;20042;-70
2021/04/30 06:22:15;;;;;;;16.48;7.82;;;;;;;10.09;46.80;101158.66;5011487;28;20025;-69
2021/04/30 06:24:40;;;;;;;17.67;8.25;;;;;;;9.89;45.59;101155.88;5001437;28;20038;-70
2021/04/30 06:27:06;;;;;;;15.82;7.60;;;;;;;9.73;46.74;101160.69;4994575;28;20478;-70
2021/04/30 06:29:32;;;;;;;17.70;7.15;;;;;;;9.72;46.10;101162.47;5011419;28;20044;-70
2021/04/30 06:31:58;;;;;;;14.45;8.13;;;;;;;9.97;47.04;101159.09;5015086;28;20022;-70
2021/04/30 06:34:25;;;;;;;18.23;8.65;;;;;;;10.06;45.40;101169.22;4996594;28;20168;-72
2021/04/30 06:36:54;;;;;;;16.05;9.00;;;;;;;10.08;46.22;101177.88;5016923;28;20021;-69
2021/04/30 06:39:24;;;;;;;12.57;7.55;;;;;;;10.29;45.54;101178.06;5012050;28;20036;-71
2021/04/30 06:41:51;;;;;;;20.10;9.35;;;;;;;10.35;45.22;101177.84;4997838;28;20706;-69
2021/04/30 06:44:16;;;;;;;16.45;8.65;;;;;;;10.53;45.27;101177.19;4994651;28;20054;-69
2021/04/30 06:46:42;;;;;;;18.20;7.63;;;;;;;10.71;44.86;101178.31;5010186;28;20063;-70
2021/04/30 06:49:07;;;;;;;13.45;8.43;;;;;;;11.02;43.63;101172.00;5009522;28;20034;-69
2021/04/30 06:51:33;;;;;;;20.15;9.15;;;;;;;11.13;43.51;101179.44;5013639;28;20114;-70
2021/04/30 06:54:01;;;;;;;13.73;7.97;;;;;;;11.44;42.33;101181.72;5011878;28;20495;-69
2021/04/30 06:56:28;;;;;;;15.05;9.63;;;;;;;11.48;41.04;101187.72;4995124;28;20494;-69
2021/04/30 06:58:54;;;;;;;17.63;9.30;;;;;;;11.90;41.91;101192.19;4998020;28;20086;-70
2021/04/30 07:01:20;;;;;;;15.35;8.27;;;;;;;12.22;39.63;101186.50;4982672;28;20041;-69
2021/04/30 07:03:46;;;;;;;14.63;8.88;;;;;;;12.13;40.23;101196.47;5007124;28;20033;-69
2021/04/30 07:06:14;;;;;;;15.70;7.82;;;;;;;12.57;39.43;101191.97;4979742;28;20044;-69
2021/04/30 07:08:39;;;;;;;15.20;8.77;;;;;;;12.63;40.55;101199.59;5014124;28;20032;-70
2021/04/30 07:11:06;;;;;;;12.27;8.40;;;;;;;13.02;39.28;101201.38;5009070;28;20033;-70
2021/04/30 07:13:34;;;;;;;10.85;7.78;;;;;;;13.35;37.15;101192.88;4997780;28;20044;-70
2021/04/30 07:16:01;;;;;;;13.50;8.50;;;;;;;13.70;36.68;101195.66;5016314;28;20033;-70
2021/04/30 07:18:26;;;;;;;12.48;8.02;;;;;;;14.10;36.10;101199.81;5017081;28;20033;-70
2021/04/30 07:20:52;;;;;;;11.25;7.78;;;;;;;13.93;35.17;101198.00;5010619;28;20014;-69
2021/04/30 07:23:17;;;;;;;13.57;8.13;;;;;;;13.78;35.65;101205.78;4996854;28;20030;-70
2021/04/30 07:25:43;;;;;;;12.52;7.28;;;;;;;13.56;37.28;101204.16;4998200;28;20183;-69
2021/04/30 07:28:08;;;;;;;12.45;7.13;;;;;;;13.73;36.27;101209.47;5004638;28;20557;-70
2021/04/30 07:30:34;;;;;;;11.68;7.95;;;;;;;13.44;36.74;101215.25;5014975;28;20029;-70
2021/04/30 07:32:59;;;;;;;14.43;8.80;;;;;;;12.91;37.12;101216.75;5021385;28;20042;-70
2021/04/30 07:35:25;;;;;;;15.18;8.13;;;;;;;12.38;38.10;101219.88;4988408;28;20475;-71
2021/04/30 07:37:51;;;;;;;12.35;8.10;;;;;;;12.71;39.02;101222.88;5013784;28;20045;-69
2021/04/30 07:40:16;;;;;;;14.30;8.15;;;;;;;12.90;38.24;101220.31;4999320;28;20039;-69
2021/04/30 07:42:43;;;;;;;15.95;8.23;;;;;;;12.63;39.11;101231.06;5015425;28;20390;-69
2021/04/30 07:45:10;;;;;;;19.83;9.65;;;;;;;12.15;39.14;101234.81;5014902;28;20541;-70
2021/04/30 07:47:36;;;;;;;10.82;8.25;;;;;;;11.90;40.01;101234.09;5016361;28;20144;-68
2021/04/30 07:50:05;;;;;;;11.57;8.48;;;;;;;11.99;39.58;101231.13;5015539;28;20129;-69
2021/04/30 07:52:31;;;;;;;15.50;9.07;;;;;;;12.13;40.00;101227.94;4996737;28;20041;-69
2021/04/30 07:55:00;;;;;;;14.02;7.97;;;;;;;12.40;39.74;101232.03;5014657;28;20064;-69
2021/04/30 07:57:25;;;;;;;18.13;9.30;;;;;;;12.17;39.07;101235.59;5013562;28;20395;-70
2021/04/30 07:59:51;;;;;;;11.55;8.70;;;;;;;11.87;40.01;101233.31;5014182;28;20037;-69
2021/04/30 08:02:16;;;;;;;11.55;7.80;;;;;;;12.38;39.44;101228.63;4990411;28;20478;-69
2021/04/30 08:04:42;;;;;;;17.50;8.60;;;;;;;13.04;38.89;101231.03;5013426;28;20040;-69
2021/04/30 08:07:07;;;;;;;13.63;7.90;;;;;;;13.51;37.55;101233.25;5014243;28;20080;-69
2021/04/30 08:09:33;;;;;;;14.98;8.23;;;;;;;13.28;37.81;101241.34;4996926;28;20041;-68
2021/04/30 08:11:59;;;;;;;15.60;8.95;;;;;;;12.88;38.50;101240.50;4998614;28;20026;-69
2021/04/30 08:14:26;;;;;;;17.40;9.70;;;;;;;13.59;37.95;101240.81;4986734;28;20122;-70
2021/04/30 08:16:52;;;;;;;13.65;8.98;;;;;;;14.07;35.69;101235.91;5017753;28;20044;-69
2021/04/30 08:19:18;;;;;;;14.20;9.18;;;;;;;13.86;36.48;101240.44;5003384;28;20033;-69
2021/04/30 08:21:43;;;;;;;15.27;8.80;;;;;;;13.52;36.79;101245.47;5016045;28;20022;-70
2021/04/30 08:24:09;;;;;;;12.10;8.63;;;;;;;13.64;37.39;101246.69;5016681;28;20052;-70
2021/04/30 08:26:35;;;;;;;9.82;7.80;;;;;;;13.85;37.16;101244.84;5015703;28;20037;-68
2021/04/30 08:29:00;;;;;;;14.82;8.07;;;;;;;13.94;36.12;101248.78;5013245;28;20128;-69
2021/04/30 08:31:27;;;;;;;14.20;10.07;;;;;;;13.58;36.74;101243.50;5014105;28;20081;-69
2021/04/30 08:33:53;;;;;;;14.73;9.00;;;;;;;13.90;36.64;101248.09;5002333;28;20496;-70
2021/04/30 08:36:21;;;;;;;17.10;8.60;;;;;;;13.60;36.26;101246.91;5011384;28;20037;-69
2021/04/30 08:38:47;;;;;;;20.33;9.38;;;;;;;13.35;37.02;101253.28;5004988;28;20137;-69
2021/04/30 08:41:15;;;;;;;11.35;8.00;;;;;;;13.56;36.11;101253.19;4996634;28;20029;-69
2021/04/30 08:43:41;;;;;;;13.45;9.60;;;;;;;13.60;36.79;101260.91;5011174;28;20041;-69
2021/04/30 08:46:10;;;;;;;17.25;9.48;;;;;;;13.66;34.27;101263.25;5010014;28;20055;-69
2021/04/30 08:48:36;;;;;;;18.05;8.85;;;;;;;14.06;34.08;101252.63;5010288;28;20022;-70
2021/04/30 08:51:01;;;;;;;12.70;8.82;;;;;;;14.83;34.76;101254.03;5008567;28;20474;-69
2021/04/30 08:53:27;;;;;;;15.25;8.57;;;;;;;14.00;34.68;101258.16;4994576;28;20038;-68
2021/04/30 08:55:54;;;;;;;14.27;9.10;;;;;;;14.68;33.13;101259.16;5007711;28;20045;-69
2021/04/30 08:58:25;;;;;;;14.25;8.95;;;;;;;14.28;34.35;101263.78;4995078;28;20021;-71
2021/04/30 09:00:52;;;;;;;12.57;9.10;;;;;;;14.38;34.84;101266.78;4993593;28;20030;-68
2021/04/30 09:03:18;;;;;;;13.25;8.40;;;;;;;14.31;34.90;101271.50;4981328;28;20037;-69
2021/04/30 09:05:49;;;;;;;11.20;8.55;;;;;;;13.98;34.75;101271.38;5012070;28;20096;-69
2021/04/30 09:08:15;;;;;;;13.40;9.10;;;;;;;13.15;35.80;101271.69;5008422;28;20032;-69
2021/04/30 09:10:41;;;;;;;20.65;9.82;;;;;;;12.90;35.54;101272.78;4994714;28;20037;-69
2021/04/30 09:13:10;;;;;;;10.85;8.60;;;;;;;13.02;36.27;101272.22;5010329;28;20038;-69
2021/04/30 09:15:36;;;;;;;10.57;8.73;;;;;;;12.98;34.96;101275.94;4992816;28;20036;-69
2021/04/30 09:18:27;;;;;;;11.15;8.35;;;;;;;12.56;36.39;101279.44;4994374;28;20872;-69
2021/04/30 09:20:54;;;;;;;10.05;8.65;;;;;;;12.75;36.33;101282.16;5009222;28;20441;-69
2021/04/30 09:23:30;;;;;;;11.70;9.02;;;;;;;12.41;36.38;101277.44;4994485;28;20526;-69
2021/04/30 09:25:56;;;;;;;12.63;9.25;;;;;;;12.27;37.55;101285.88;5007530;28;20044;-70
2021/04/30 09:28:22;;;;;;;19.98;12.18;;;;;;;12.42;37.16;101280.03;5018286;28;20041;-69
2021/04/30 09:30:49;;;;;;;14.20;11.45;;;;;;;12.42;36.60;101279.13;5011161;28;20112;-67
2021/04/30 09:33:16;;;;;;;12.68;8.90;;;;;;;12.21;38.18;101281.72;4993203;28;20140;-68
2021/04/30 09:35:53;;;;;;;14.85;10.45;;;;;;;12.08;38.82;101281.38;5009179;28;20026;-67
2021/04/30 09:38:34;;;;;;;15.30;9.52;;;;;;;11.81;38.26;101283.31;5008037;28;20048;-68
2021/04/30 09:41:00;;;;;;;12.00;9.63;;;;;;;11.67;40.58;101285.56;4999515;28;20040;-68
2021/04/30 09:43:26;;;;;;;13.77;10.10;;;;;;;11.77;39.75;101283.44;5007760;28;20029;-69
2021/04/30 09:45:51;;;;;;;22.60;11.50;;;;;;;11.32;41.62;101290.34;5009708;28;20046;-68
2021/04/30 09:48:17;;;;;;;17.45;10.60;;;;;;;11.02;43.65;101284.47;5009583;28;20094;-68
2021/04/30 09:50:44;;;;;;;18.38;10.98;;;;;;;10.97;42.76;101289.00;4991583;28;20033;-67
2021/04/30 09:53:16;;;;;;;13.68;9.77;;;;;;;11.09;42.49;101283.34;5007990;28;20136;-68
2021/04/30 09:55:47;;;;;;;13.23;10.63;;;;;;;10.99;44.51;101282.78;4993360;28;21487;-67
2021/04/30 09:58:20;;;;;;;19.35;11.45;;;;;;;10.89;44.26;101291.03;4978323;28;20581;-68
2021/04/30 10:01:00;;;;;;;20.50;11.57;;;;;;;10.84;44.28;101293.81;4991617;28;20072;-67
2021/04/30 10:03:28;;;;;;;17.23;11.07;;;;;;;10.82;43.71;101293.00;5000572;28;20496;-67
2021/04/30 10:06:02;;;;;;;17.92;11.90;;;;;;;10.88;42.54;101300.63;5009744;28;20079;-67
2021/04/30 10:08:28;;;;;;;17.92;11.95;;;;;;;10.29;43.64;101300.84;5009606;28;20042;-67
2021/04/30 10:10:54;;;;;;;12.75;9.73;;;;;;;9.37;42.67;101304.44;5000920;28;20038;-67
2021/04/30 10:13:20;;;;;;;15.02;9.27;;;;;;;8.82;43.02;101295.47;4995815;28;20099;-67
2021/04/30 10:15:45;;;;;;;17.77;10.00;;;;;;;8.90;42.68;101297.00;4985188;28;20033;-67
2021/04/30 10:18:14;;;;;;;14.38;10.60;;;;;;;9.14;44.33;101297.22;5008920;28;20198;-67
2021/04/30 10:20:41;;;;;;;16.10;10.07;;;;;;;9.04;43.65;101295.78;5011313;28;20025;-67
2021/04/30 10:23:12;;;;;;;12.18;7.60;;;;;;;9.02;44.10;101287.13;5002897;28;20037;-67
2021/04/30 10:25:39;;;;;;;12.48;8.88;;;;;;;9.66;43.62;101290.53;5012523;28;20062;-69
2021/04/30 10:28:07;;;;;;;10.82;8.82;;;;;;;9.94;43.15;101284.50;4979164;28;20499;-67
2021/04/30 10:30:55;;;;;;;13.30;9.25;;;;;;;10.26;43.71;101290.47;4989737;28;20033;-67
2021/04/30 10:33:52;;;;;;;13.73;8.90;;;;;;;10.45;41.71;101283.75;4991630;28;20627;-67
2021/04/30 10:36:32;;;;;;;14.73;9.43;;;;;;;10.86;42.54;101280.66;4999085;28;20063;-67
2021/04/30 10:39:01;;;;;;;16.65;9.05;;;;;;;10.81;42.41;101278.19;4992515;28;20037;-67
2021/04/30 10:41:33;;;;;;;14.07;9.38;;;;;;;10.75;43.14;101283.63;5011280;28;20025;-67
2021/04/30 10:44:22;;;;;;;14.57;9.57;;;;;;;10.85;43.41;101279.81;4983695;28;20216;-67
2021/04/30 10:47:12;;;;;;;16.15;10.18;;;;;;;10.92;43.00;101286.53;5013312;28;20118;-67
2021/04/30 10:49:39;;;;;;;16.08;10.27;;;;;;;11.10;43.76;101274.56;4983616;28;20045;-67
2021/04/30 10:52:05;;;;;;;18.23;10.40;;;;;;;11.21;45.09;101280.28;4978682;28;20373;-67
2021/04/30 10:54:39;;;;;;;18.20;11.13;;;;;;;10.77;43.94;101277.47;4996430;28;20061;-68
2021/04/30 10:57:17;;;;;;;18.73;11.25;;;;;;;11.23;44.97;101283.69;5003773;28;20042;-69
2021/04/30 10:59:44;;;;;;;16.15;11.57;;;;;;;11.38;45.00;101279.66;5014463;28;20728;-68
2021/04/30 11:02:23;;;;;;;15.18;11.18;;;;;;;11.46;44.45;101288.09;4996440;28;20034;-67
2021/04/30 11:05:10;;;;;;;12.93;10.85;;;;;;;11.76;43.27;101295.69;5012674;28;20766;-67
2021/04/30 11:07:47;;;;;;;16.88;11.90;;;;;;;11.71;42.19;101297.66;5012986;28;20387;-67
2021/04/30 11:12:58;;;;;;;16.25;10.93;;;;;;;11.52;43.20;101304.47;5010670;28;20045;-67
2021/04/30 11:15:26;;;;;;;19.02;11.75;;;;;;;11.39;44.21;101301.44;5012350;28;20116;-68
2021/04/30 11:17:56;;;;;;;16.80;12.20;;;;;;;11.29;44.17;101307.94;5012930;28;20041;-67
2021/04/30 11:20:28;;;;;;;14.50;11.20;;;;;;;11.27;44.02;101313.22;5014150;28;20030;-67
2021/04/30 11:23:13;;;;;;;17.95;11.35;;;;;;;11.12;42.89;101317.22;5018296;28;20140;-67